First Ferry Vi — VRS4293 — position and weather

sailwx.info

Track history (hours):
 
Tides and Currents Weather Stations Pressure Air Temp Water Temp Dewpoint Dewpoint Depression Visibility Wind Speed Wind Dir Waves Ship Positions

First Ferry Vi

Last reported at 2015-Aug-03 14:33 UTC. Time now 2015-Aug-03 15:05 UTC.
Position N 22°17' E 114°10'.

; draft 1.8 m.

Type: Ship. MMSI: 477995028.

Date/timePositionNaut miles runAvg speedWind from/ knotsBaromVisibWave heightAir tempDewpointWater temp
2015-Aug-03 14:33N 22°17' E 114°10'3 3.1
2015-Aug-03 13:33N 22°17' E 114°06'4 1.8
2015-Aug-03 11:26N 22°16' E 114°02'6 7.1
2015-Aug-03 10:34N 22°18' E 114°09'6 5.4
2015-Aug-03 09:31N 22°16' E 114°03'5 5.6
2015-Aug-03 08:34N 22°18' E 114°08'3 1.6
2015-Aug-03 06:33N 22°18' E 114°12'1 0.7
2015-Aug-03 05:34N 22°18' E 114°11'2 0.8
2015-Aug-03 03:33N 22°17' E 114°10'3 2.2
2015-Aug-03 02:25N 22°20' E 114°09'0 0.0
2015-Aug-03 01:33N 22°20' E 114°09'7 5.0
2015-Aug-03 00:04N 22°16' E 114°02'714.3
2015-Aug-02 23:34N 22°17' E 114°10'0 0.0
2015-Aug-02 16:34N 22°18' E 114°09'3 1.4
2015-Aug-02 14:33N 22°17' E 114°07'0 0.1
2015-Aug-02 12:33N 22°18' E 114°07'0 0.2
2015-Aug-02 10:33N 22°17' E 114°06'0 0.0
2015-Aug-02 08:34N 22°17' E 114°06'0 0.1
2015-Aug-02 06:33N 22°17' E 114°07'3 1.2
2015-Aug-02 04:03N 22°15' E 114°04'510.8
2015-Aug-02 03:34N 22°17' E 114°10'3 2.5
2015-Aug-02 02:33N 22°20' E 114°09'0 0.0
2015-Aug-02 01:33N 22°20' E 114°09'2 2.4
2015-Aug-02 00:33N 22°17' E 114°10'5 4.2
2015-Aug-01 23:18N 22°16' E 114°04'5 0.7
2015-Aug-01 15:33N 22°17' E 114°10'6 4.8
2015-Aug-01 14:21N 22°17' E 114°03'5 6.2
2015-Aug-01 13:34N 22°18' E 114°09'1 0.5
2015-Aug-01 11:33N 22°17' E 114°10'7 6.3
2015-Aug-01 10:23N 22°16' E 114°02'8 9.1
2015-Aug-01 09:33N 22°17' E 114°10'7 5.5
2015-Aug-01 08:13N 22°16' E 114°02'710.6
2015-Aug-01 07:33N 22°17' E 114°10'5 3.2
2015-Aug-01 06:07N 22°17' E 114°05'5 9.8
2015-Aug-01 05:33N 22°17' E 114°11'2 1.8
2015-Aug-01 04:33N 22°19' E 114°12'2 2.1
2015-Aug-01 03:33N 22°17' E 114°10'0 0.2
2015-Aug-01 01:33N 22°17' E 114°10'2 2.3
2015-Aug-01 00:33N 22°19' E 114°09'5 4.0
2015-Jul-31 23:16N 22°16' E 114°05'5 0.6
2015-Jul-31 15:33N 22°17' E 114°10'7 5.8
2015-Jul-31 14:23N 22°16' E 114°02'7 8.2
2015-Jul-31 13:33N 22°17' E 114°10'0 0.0
2015-Jul-31 12:34N 22°17' E 114°10'4 4.0
2015-Jul-31 11:32N 22°16' E 114°05'1 0.4
2015-Jul-31 10:16N 22°17' E 114°05'4 5.7
2015-Jul-31 09:33N 22°19' E 114°09'1 0.7
2015-Jul-31 08:29N 22°20' E 114°09'0 0.0
2015-Jul-31 06:12N 22°20' E 114°09'1 2.3
2015-Jul-31 05:33N 22°18' E 114°09'1 0.5
2015-Jul-31 03:33N 22°17' E 114°10'4 2.6
2015-Jul-31 02:03N 22°17' E 114°05'4 8.5
2015-Jul-31 01:33N 22°17' E 114°10'2 2.0
2015-Jul-31 00:33N 22°19' E 114°09'6 5.1
2015-Jul-30 23:20N 22°15' E 114°04'6 0.7
2015-Jul-30 15:33N 22°17' E 114°10'4 2.9
2015-Jul-30 14:15N 22°17' E 114°06'6 8.1
2015-Jul-30 13:33N 22°18' E 114°11'2 1.8
2015-Jul-30 12:33N 22°17' E 114°10'4 4.0
2015-Jul-30 11:31N 22°16' E 114°05'3 2.7
2015-Jul-30 10:23N 22°16' E 114°02'911.2
2015-Jul-30 09:33N 22°19' E 114°12'0 0.2
2015-Jul-30 08:33N 22°19' E 114°12'0 0.0
2015-Jul-30 07:33N 22°19' E 114°12'0 0.0
2015-Jul-30 06:33N 22°19' E 114°12'2 2.0
2015-Jul-30 05:34N 22°17' E 114°10'1 0.4
2015-Jul-30 03:33N 22°17' E 114°10'5 3.0
2015-Jul-30 02:04N 22°16' E 114°05'5 9.9
2015-Jul-30 01:33N 22°17' E 114°10'2 1.9
2015-Jul-30 00:33N 22°19' E 114°09'7 5.9
2015-Jul-29 23:22N 22°15' E 114°03'7 0.9
2015-Jul-29 15:33N 22°17' E 114°10'5 3.9
2015-Jul-29 14:18N 22°17' E 114°04'5 6.4
2015-Jul-29 13:33N 22°17' E 114°10'0 0.0
2015-Jul-29 12:33N 22°17' E 114°10'4 4.3
2015-Jul-29 11:32N 22°16' E 114°05'3 2.3
2015-Jul-29 10:23N 22°16' E 114°02'910.6
2015-Jul-29 09:34N 22°18' E 114°11'1 1.1
2015-Jul-29 08:33N 22°19' E 114°12'0 0.0
2015-Jul-29 07:34N 22°19' E 114°12'0 0.0
2015-Jul-29 06:33N 22°19' E 114°12'2 2.2
2015-Jul-29 05:33N 22°17' E 114°10'1 0.2
2015-Jul-29 03:29N 22°17' E 114°10'0 0.2
2015-Jul-29 01:33N 22°17' E 114°10'2 2.1
2015-Jul-29 00:33N 22°19' E 114°09'5 4.2
2015-Jul-28 23:17N 22°16' E 114°05'5 0.6
2015-Jul-28 15:33N 22°17' E 114°10'3 2.3
2015-Jul-28 14:13N 22°17' E 114°06'5 7.4
2015-Jul-28 13:33N 22°18' E 114°12'2 1.9
2015-Jul-28 12:32N 22°17' E 114°10'4 4.1
2015-Jul-28 11:31N 22°16' E 114°05'2 1.6
2015-Jul-28 10:20N 22°17' E 114°03'810.0
2015-Jul-28 09:34N 22°18' E 114°12'1 0.9
2015-Jul-28 08:33N 22°19' E 114°12'0 0.0
2015-Jul-28 07:33N 22°19' E 114°12'0 0.0
2015-Jul-28 06:33N 22°19' E 114°12'1 1.4
2015-Jul-28 05:33N 22°18' E 114°11'1 0.7
2015-Jul-28 03:33N 22°17' E 114°10'0 0.2
2015-Jul-28 01:33N 22°17' E 114°10'1 1.4
2015-Jul-28 00:33N 22°18' E 114°09'6 4.8
2015-Jul-27 23:20N 22°15' E 114°04'6 0.7
2015-Jul-27 15:33N 22°17' E 114°10'8 6.7
2015-Jul-27 14:25N 22°16' E 114°02'8 8.7
2015-Jul-27 13:33N 22°17' E 114°10'0 0.2
2015-Jul-27 12:34N 22°17' E 114°10'4 4.1
2015-Jul-27 11:33N 22°16' E 114°05'1 0.5
2015-Jul-27 10:16N 22°17' E 114°05'6 7.8
2015-Jul-27 09:33N 22°18' E 114°11'1 1.0
2015-Jul-27 08:33N 22°19' E 114°12'0 0.0
2015-Jul-27 07:33N 22°19' E 114°12'0 0.0
2015-Jul-27 06:33N 22°19' E 114°12'1 1.3
2015-Jul-27 05:33N 22°18' E 114°11'2 0.8
2015-Jul-27 03:33N 22°17' E 114°10'4 2.8
2015-Jul-27 02:04N 22°16' E 114°05'4 8.7
2015-Jul-27 01:34N 22°17' E 114°10'2 2.1
2015-Jul-27 00:33N 22°19' E 114°09'6 4.7
2015-Jul-26 23:19N 22°16' E 114°04'2 0.3
2015-Jul-26 16:04N 22°16' E 114°02'815.1
2015-Jul-26 15:33N 22°17' E 114°10'0 0.0
2015-Jul-26 13:33N 22°17' E 114°10'7 4.6
2015-Jul-26 12:03N 22°16' E 114°02'714.1
2015-Jul-26 11:33N 22°17' E 114°10'8 5.1
2015-Jul-26 10:04N 22°16' E 114°02'814.8
2015-Jul-26 09:33N 22°17' E 114°10'7 4.9
2015-Jul-26 08:03N 22°16' E 114°02'715.1
2015-Jul-26 07:34N 22°17' E 114°10'0 0.0
2015-Jul-26 05:33N 22°17' E 114°10'7 5.5
2015-Jul-26 04:22N 22°16' E 114°03'4 2.1
2015-Jul-26 02:33N 22°17' E 114°06'5 5.1
2015-Jul-26 01:33N 22°19' E 114°12'0 0.0
2015-Jul-26 00:33N 22°19' E 114°12'0 0.0
2015-Jul-25 23:33N 22°19' E 114°12'3 0.3
2015-Jul-25 15:33N 22°17' E 114°10'5 4.0
2015-Jul-25 14:18N 22°17' E 114°04'3 3.4
2015-Jul-25 13:33N 22°17' E 114°07'3 1.3
2015-Jul-25 11:34N 22°17' E 114°10'7 6.3
2015-Jul-25 10:24N 22°16' E 114°02'8 9.2
2015-Jul-25 09:34N 22°17' E 114°10'8 5.8
2015-Jul-25 08:14N 22°16' E 114°02'710.6
2015-Jul-25 07:33N 22°17' E 114°10'5 3.4
2015-Jul-25 06:09N 22°17' E 114°05'5 8.1
2015-Jul-25 05:33N 22°17' E 114°10'1 0.9
2015-Jul-25 04:33N 22°17' E 114°10'0 0.2
2015-Jul-25 03:33N 22°17' E 114°10'6 4.2
2015-Jul-25 02:08N 22°16' E 114°04'610.1
2015-Jul-25 01:33N 22°17' E 114°10'2 2.4
2015-Jul-25 00:33N 22°19' E 114°09'6 4.9
2015-Jul-24 23:19N 22°15' E 114°04'6 0.7
2015-Jul-24 15:33N 22°17' E 114°10'  
Track history (hours):
 
Tides and Currents Weather Stations Pressure Air Temp Water Temp Dewpoint Dewpoint Depression Visibility Wind Speed Wind Dir Waves Ship Positions

First Ferry Vi

Last reported at 2015-Aug-03 14:33 UTC. Time now 2015-Aug-03 15:05 UTC.
Position N 22°17' E 114°10'.

; draft 1.8 m.

Type: Ship. MMSI: 477995028.

Date/timePositionNaut miles runAvg speedWind from/ knotsBaromVisibWave heightAir tempDewpointWater temp
2015-Aug-03 14:33N 22°17' E 114°10'3 3.1
2015-Aug-03 13:33N 22°17' E 114°06'4 1.8
2015-Aug-03 11:26N 22°16' E 114°02'6 7.1
2015-Aug-03 10:34N 22°18' E 114°09'6 5.4
2015-Aug-03 09:31N 22°16' E 114°03'5 5.6
2015-Aug-03 08:34N 22°18' E 114°08'3 1.6
2015-Aug-03 06:33N 22°18' E 114°12'1 0.7
2015-Aug-03 05:34N 22°18' E 114°11'2 0.8
2015-Aug-03 03:33N 22°17' E 114°10'3 2.2
2015-Aug-03 02:25N 22°20' E 114°09'0 0.0
2015-Aug-03 01:33N 22°20' E 114°09'7 5.0
2015-Aug-03 00:04N 22°16' E 114°02'714.3
2015-Aug-02 23:34N 22°17' E 114°10'0 0.0
2015-Aug-02 16:34N 22°18' E 114°09'3 1.4
2015-Aug-02 14:33N 22°17' E 114°07'0 0.1
2015-Aug-02 12:33N 22°18' E 114°07'0 0.2
2015-Aug-02 10:33N 22°17' E 114°06'0 0.0
2015-Aug-02 08:34N 22°17' E 114°06'0 0.1
2015-Aug-02 06:33N 22°17' E 114°07'3 1.2
2015-Aug-02 04:03N 22°15' E 114°04'510.8
2015-Aug-02 03:34N 22°17' E 114°10'3 2.5
2015-Aug-02 02:33N 22°20' E 114°09'0 0.0
2015-Aug-02 01:33N 22°20' E 114°09'2 2.4
2015-Aug-02 00:33N 22°17' E 114°10'5 4.2
2015-Aug-01 23:18N 22°16' E 114°04'5 0.7
2015-Aug-01 15:33N 22°17' E 114°10'6 4.8
2015-Aug-01 14:21N 22°17' E 114°03'5 6.2
2015-Aug-01 13:34N 22°18' E 114°09'1 0.5
2015-Aug-01 11:33N 22°17' E 114°10'7 6.3
2015-Aug-01 10:23N 22°16' E 114°02'8 9.1
2015-Aug-01 09:33N 22°17' E 114°10'7 5.5
2015-Aug-01 08:13N 22°16' E 114°02'710.6
2015-Aug-01 07:33N 22°17' E 114°10'5 3.2
2015-Aug-01 06:07N 22°17' E 114°05'5 9.8
2015-Aug-01 05:33N 22°17' E 114°11'2 1.8
2015-Aug-01 04:33N 22°19' E 114°12'2 2.1
2015-Aug-01 03:33N 22°17' E 114°10'0 0.2
2015-Aug-01 01:33N 22°17' E 114°10'2 2.3
2015-Aug-01 00:33N 22°19' E 114°09'5 4.0
2015-Jul-31 23:16N 22°16' E 114°05'5 0.6
2015-Jul-31 15:33N 22°17' E 114°10'7 5.8
2015-Jul-31 14:23N 22°16' E 114°02'7 8.2
2015-Jul-31 13:33N 22°17' E 114°10'0 0.0
2015-Jul-31 12:34N 22°17' E 114°10'4 4.0
2015-Jul-31 11:32N 22°16' E 114°05'1 0.4
2015-Jul-31 10:16N 22°17' E 114°05'4 5.7
2015-Jul-31 09:33N 22°19' E 114°09'1 0.7
2015-Jul-31 08:29N 22°20' E 114°09'0 0.0
2015-Jul-31 06:12N 22°20' E 114°09'1 2.3
2015-Jul-31 05:33N 22°18' E 114°09'1 0.5
2015-Jul-31 03:33N 22°17' E 114°10'4 2.6
2015-Jul-31 02:03N 22°17' E 114°05'4 8.5
2015-Jul-31 01:33N 22°17' E 114°10'2 2.0
2015-Jul-31 00:33N 22°19' E 114°09'6 5.1
2015-Jul-30 23:20N 22°15' E 114°04'6 0.7
2015-Jul-30 15:33N 22°17' E 114°10'4 2.9
2015-Jul-30 14:15N 22°17' E 114°06'6 8.1
2015-Jul-30 13:33N 22°18' E 114°11'2 1.8
2015-Jul-30 12:33N 22°17' E 114°10'4 4.0
2015-Jul-30 11:31N 22°16' E 114°05'3 2.7
2015-Jul-30 10:23N 22°16' E 114°02'911.2
2015-Jul-30 09:33N 22°19' E 114°12'0 0.2
2015-Jul-30 08:33N 22°19' E 114°12'0 0.0
2015-Jul-30 07:33N 22°19' E 114°12'0 0.0
2015-Jul-30 06:33N 22°19' E 114°12'2 2.0
2015-Jul-30 05:34N 22°17' E 114°10'1 0.4
2015-Jul-30 03:33N 22°17' E 114°10'5 3.0
2015-Jul-30 02:04N 22°16' E 114°05'5 9.9
2015-Jul-30 01:33N 22°17' E 114°10'2 1.9
2015-Jul-30 00:33N 22°19' E 114°09'7 5.9
2015-Jul-29 23:22N 22°15' E 114°03'7 0.9
2015-Jul-29 15:33N 22°17' E 114°10'5 3.9
2015-Jul-29 14:18N 22°17' E 114°04'5 6.4
2015-Jul-29 13:33N 22°17' E 114°10'0 0.0
2015-Jul-29 12:33N 22°17' E 114°10'4 4.3
2015-Jul-29 11:32N 22°16' E 114°05'3 2.3
2015-Jul-29 10:23N 22°16' E 114°02'910.6
2015-Jul-29 09:34N 22°18' E 114°11'1 1.1
2015-Jul-29 08:33N 22°19' E 114°12'0 0.0
2015-Jul-29 07:34N 22°19' E 114°12'0 0.0
2015-Jul-29 06:33N 22°19' E 114°12'2 2.2
2015-Jul-29 05:33N 22°17' E 114°10'1 0.2
2015-Jul-29 03:29N 22°17' E 114°10'0 0.2
2015-Jul-29 01:33N 22°17' E 114°10'2 2.1
2015-Jul-29 00:33N 22°19' E 114°09'5 4.2
2015-Jul-28 23:17N 22°16' E 114°05'5 0.6
2015-Jul-28 15:33N 22°17' E 114°10'3 2.3
2015-Jul-28 14:13N 22°17' E 114°06'5 7.4
2015-Jul-28 13:33N 22°18' E 114°12'2 1.9
2015-Jul-28 12:32N 22°17' E 114°10'4 4.1
2015-Jul-28 11:31N 22°16' E 114°05'2 1.6
2015-Jul-28 10:20N 22°17' E 114°03'810.0
2015-Jul-28 09:34N 22°18' E 114°12'1 0.9
2015-Jul-28 08:33N 22°19' E 114°12'0 0.0
2015-Jul-28 07:33N 22°19' E 114°12'0 0.0
2015-Jul-28 06:33N 22°19' E 114°12'1 1.4
2015-Jul-28 05:33N 22°18' E 114°11'1 0.7
2015-Jul-28 03:33N 22°17' E 114°10'0 0.2
2015-Jul-28 01:33N 22°17' E 114°10'1 1.4
2015-Jul-28 00:33N 22°18' E 114°09'6 4.8
2015-Jul-27 23:20N 22°15' E 114°04'6 0.7
2015-Jul-27 15:33N 22°17' E 114°10'8 6.7
2015-Jul-27 14:25N 22°16' E 114°02'8 8.7
2015-Jul-27 13:33N 22°17' E 114°10'0 0.2
2015-Jul-27 12:34N 22°17' E 114°10'4 4.1
2015-Jul-27 11:33N 22°16' E 114°05'1 0.5
2015-Jul-27 10:16N 22°17' E 114°05'6 7.8
2015-Jul-27 09:33N 22°18' E 114°11'1 1.0
2015-Jul-27 08:33N 22°19' E 114°12'0 0.0
2015-Jul-27 07:33N 22°19' E 114°12'0 0.0
2015-Jul-27 06:33N 22°19' E 114°12'1 1.3
2015-Jul-27 05:33N 22°18' E 114°11'2 0.8
2015-Jul-27 03:33N 22°17' E 114°10'4 2.8
2015-Jul-27 02:04N 22°16' E 114°05'4 8.7
2015-Jul-27 01:34N 22°17' E 114°10'2 2.1
2015-Jul-27 00:33N 22°19' E 114°09'6 4.7
2015-Jul-26 23:19N 22°16' E 114°04'2 0.3
2015-Jul-26 16:04N 22°16' E 114°02'815.1
2015-Jul-26 15:33N 22°17' E 114°10'0 0.0
2015-Jul-26 13:33N 22°17' E 114°10'7 4.6
2015-Jul-26 12:03N 22°16' E 114°02'714.1
2015-Jul-26 11:33N 22°17' E 114°10'8 5.1
2015-Jul-26 10:04N 22°16' E 114°02'814.8
2015-Jul-26 09:33N 22°17' E 114°10'7 4.9
2015-Jul-26 08:03N 22°16' E 114°02'715.1
2015-Jul-26 07:34N 22°17' E 114°10'0 0.0
2015-Jul-26 05:33N 22°17' E 114°10'7 5.5
2015-Jul-26 04:22N 22°16' E 114°03'4 2.1
2015-Jul-26 02:33N 22°17' E 114°06'5 5.1
2015-Jul-26 01:33N 22°19' E 114°12'0 0.0
2015-Jul-26 00:33N 22°19' E 114°12'0 0.0
2015-Jul-25 23:33N 22°19' E 114°12'3 0.3
2015-Jul-25 15:33N 22°17' E 114°10'5 4.0
2015-Jul-25 14:18N 22°17' E 114°04'3 3.4
2015-Jul-25 13:33N 22°17' E 114°07'3 1.3
2015-Jul-25 11:34N 22°17' E 114°10'7 6.3
2015-Jul-25 10:24N 22°16' E 114°02'8 9.2
2015-Jul-25 09:34N 22°17' E 114°10'8 5.8
2015-Jul-25 08:14N 22°16' E 114°02'710.6
2015-Jul-25 07:33N 22°17' E 114°10'5 3.4
2015-Jul-25 06:09N 22°17' E 114°05'5 8.1
2015-Jul-25 05:33N 22°17' E 114°10'1 0.9
2015-Jul-25 04:33N 22°17' E 114°10'0 0.2
2015-Jul-25 03:33N 22°17' E 114°10'6 4.2
2015-Jul-25 02:08N 22°16' E 114°04'610.1
2015-Jul-25 01:33N 22°17' E 114°10'2 2.4
2015-Jul-25 00:33N 22°19' E 114°09'6 4.9
2015-Jul-24 23:19N 22°15' E 114°04'6 0.7
2015-Jul-24 15:33N 22°17' E 114°10'  

Dump ship's entire track history